sensor_id;sensor_type;location;lat;lon;timestamp;P1;durP1;ratioP1;P2;durP2;ratioP2
80270;SDS011;69573;45.560;10.200;2023-05-02T00:00:43;2.70;;;2.50;;
80270;SDS011;69573;45.560;10.200;2023-05-02T00:03:10;2.65;;;2.45;;
80270;SDS011;69573;45.560;10.200;2023-05-02T00:05:36;2.90;;;2.70;;
80270;SDS011;69573;45.560;10.200;2023-05-02T00:08:03;3.00;;;2.80;;
80270;SDS011;69573;45.560;10.200;2023-05-02T00:10:29;3.63;;;3.33;;
80270;SDS011;69573;45.560;10.200;2023-05-02T00:12:55;3.08;;;2.60;;
80270;SDS011;69573;45.560;10.200;2023-05-02T00:15:22;2.38;;;2.17;;
80270;SDS011;69573;45.560;10.200;2023-05-02T00:17:48;2.38;;;2.17;;
80270;SDS011;69573;45.560;10.200;2023-05-02T00:20:14;2.35;;;1.92;;
80270;SDS011;69573;45.560;10.200;2023-05-02T00:22:41;2.50;;;2.30;;
80270;SDS011;69573;45.560;10.200;2023-05-02T00:25:07;2.13;;;2.03;;
80270;SDS011;69573;45.560;10.200;2023-05-02T00:27:34;2.33;;;2.13;;
80270;SDS011;69573;45.560;10.200;2023-05-02T00:30:01;2.00;;;1.90;;
80270;SDS011;69573;45.560;10.200;2023-05-02T00:32:27;2.30;;;2.10;;
80270;SDS011;69573;45.560;10.200;2023-05-02T00:34:53;2.25;;;1.88;;
80270;SDS011;69573;45.560;10.200;2023-05-02T00:37:20;2.20;;;2.05;;
80270;SDS011;69573;45.560;10.200;2023-05-02T00:39:46;2.40;;;2.10;;
80270;SDS011;69573;45.560;10.200;2023-05-02T00:42:13;3.05;;;2.22;;
80270;SDS011;69573;45.560;10.200;2023-05-02T00:44:39;2.10;;;1.92;;
80270;SDS011;69573;45.560;10.200;2023-05-02T00:47:05;2.03;;;1.92;;
80270;SDS011;69573;45.560;10.200;2023-05-02T00:49:31;1.52;;;1.42;;
80270;SDS011;69573;45.560;10.200;2023-05-02T00:51:58;1.60;;;1.50;;
80270;SDS011;69573;45.560;10.200;2023-05-02T00:54:24;1.50;;;1.38;;
80270;SDS011;69573;45.560;10.200;2023-05-02T00:56:51;1.70;;;1.60;;
80270;SDS011;69573;45.560;10.200;2023-05-02T00:59:17;1.42;;;1.33;;
80270;SDS011;69573;45.560;10.200;2023-05-02T01:01:47;1.00;;;1.00;;
80270;SDS011;69573;45.560;10.200;2023-05-02T01:14:35;1.40;;;0.93;;
80270;SDS011;69573;45.560;10.200;2023-05-02T01:17:06;1.00;;;1.00;;
80270;SDS011;69573;45.560;10.200;2023-05-02T01:19:38;1.45;;;1.35;;
80270;SDS011;69573;45.560;10.200;2023-05-02T01:22:06;0.95;;;0.95;;
80270;SDS011;69573;45.560;10.200;2023-05-02T01:24:55;0.98;;;0.98;;
80270;SDS011;69573;45.560;10.200;2023-05-02T01:29:49;1.38;;;1.27;;
80270;SDS011;69573;45.560;10.200;2023-05-02T01:32:15;1.30;;;1.30;;
80270;SDS011;69573;45.560;10.200;2023-05-02T01:34:42;1.20;;;1.10;;
80270;SDS011;69573;45.560;10.200;2023-05-02T01:37:10;1.23;;;1.13;;
80270;SDS011;69573;45.560;10.200;2023-05-02T01:39:37;1.42;;;1.30;;
80270;SDS011;69573;45.560;10.200;2023-05-02T01:42:05;1.15;;;1.13;;
80270;SDS011;69573;45.560;10.200;2023-05-02T01:44:31;1.25;;;1.15;;
80270;SDS011;69573;45.560;10.200;2023-05-02T01:46:59;1.38;;;1.27;;
80270;SDS011;69573;45.560;10.200;2023-05-02T01:49:27;1.95;;;1.05;;
80270;SDS011;69573;45.560;10.200;2023-05-02T01:51:54;1.40;;;1.30;;
80270;SDS011;69573;45.560;10.200;2023-05-02T01:54:22;1.30;;;1.20;;
80270;SDS011;69573;45.560;10.200;2023-05-02T01:56:48;1.20;;;1.13;;
80270;SDS011;69573;45.560;10.200;2023-05-02T01:59:16;1.60;;;1.15;;
80270;SDS011;69573;45.560;10.200;2023-05-02T02:01:43;1.73;;;1.27;;
80270;SDS011;69573;45.560;10.200;2023-05-02T02:04:10;0.90;;;0.90;;
80270;SDS011;69573;45.560;10.200;2023-05-02T02:06:37;1.20;;;1.10;;
80270;SDS011;69573;45.560;10.200;2023-05-02T02:09:03;1.00;;;1.00;;
80270;SDS011;69573;45.560;10.200;2023-05-02T02:11:34;0.98;;;0.98;;
80270;SDS011;69573;45.560;10.200;2023-05-02T02:14:09;1.08;;;1.00;;
80270;SDS011;69573;45.560;10.200;2023-05-02T02:16:37;1.75;;;1.00;;
80270;SDS011;69573;45.560;10.200;2023-05-02T02:19:06;1.38;;;1.10;;
80270;SDS011;69573;45.560;10.200;2023-05-02T02:21:33;1.10;;;1.00;;
80270;SDS011;69573;45.560;10.200;2023-05-02T02:24:03;1.08;;;1.08;;
80270;SDS011;69573;45.560;10.200;2023-05-02T02:26:33;1.00;;;1.00;;
80270;SDS011;69573;45.560;10.200;2023-05-02T02:28:59;1.23;;;1.23;;
80270;SDS011;69573;45.560;10.200;2023-05-02T02:31:32;3.17;;;1.02;;
80270;SDS011;69573;45.560;10.200;2023-05-02T02:33:59;1.42;;;1.33;;
80270;SDS011;69573;45.560;10.200;2023-05-02T02:36:41;1.65;;;1.10;;
80270;SDS011;69573;45.560;10.200;2023-05-02T02:41:41;1.23;;;1.20;;
80270;SDS011;69573;45.560;10.200;2023-05-02T02:44:27;1.30;;;1.20;;
80270;SDS011;69573;45.560;10.200;2023-05-02T02:46:59;2.15;;;1.20;;
80270;SDS011;69573;45.560;10.200;2023-05-02T02:51:59;5.00;;;1.40;;
80270;SDS011;69573;45.560;10.200;2023-05-02T02:54:32;1.30;;;1.20;;
80270;SDS011;69573;45.560;10.200;2023-05-02T02:57:05;1.20;;;1.15;;
80270;SDS011;69573;45.560;10.200;2023-05-02T02:59:33;2.40;;;1.30;;
80270;SDS011;69573;45.560;10.200;2023-05-02T03:02:04;1.00;;;1.00;;
80270;SDS011;69573;45.560;10.200;2023-05-02T03:04:33;0.90;;;0.90;;
80270;SDS011;69573;45.560;10.200;2023-05-02T03:06:59;0.73;;;0.73;;
80270;SDS011;69573;45.560;10.200;2023-05-02T03:09:26;0.90;;;0.90;;
80270;SDS011;69573;45.560;10.200;2023-05-02T03:11:55;1.40;;;1.05;;
80270;SDS011;69573;45.560;10.200;2023-05-02T03:14:21;0.93;;;0.85;;
80270;SDS011;69573;45.560;10.200;2023-05-02T03:16:48;1.55;;;1.00;;
80270;SDS011;69573;45.560;10.200;2023-05-02T03:19:14;1.00;;;1.00;;
80270;SDS011;69573;45.560;10.200;2023-05-02T03:21:41;4.38;;;1.10;;
80270;SDS011;69573;45.560;10.200;2023-05-02T03:24:08;1.20;;;1.10;;
80270;SDS011;69573;45.560;10.200;2023-05-02T03:26:34;1.15;;;1.15;;
80270;SDS011;69573;45.560;10.200;2023-05-02T03:29:00;0.80;;;0.80;;
80270;SDS011;69573;45.560;10.200;2023-05-02T03:31:26;1.25;;;1.15;;
80270;SDS011;69573;45.560;10.200;2023-05-02T03:33:53;1.60;;;1.20;;
80270;SDS011;69573;45.560;10.200;2023-05-02T03:36:19;1.08;;;1.08;;
80270;SDS011;69573;45.560;10.200;2023-05-02T03:38:45;1.67;;;0.98;;
80270;SDS011;69573;45.560;10.200;2023-05-02T03:41:11;1.92;;;0.80;;
80270;SDS011;69573;45.560;10.200;2023-05-02T03:43:38;1.55;;;0.90;;
80270;SDS011;69573;45.560;10.200;2023-05-02T03:46:05;1.10;;;1.10;;
80270;SDS011;69573;45.560;10.200;2023-05-02T03:48:32;1.50;;;0.90;;
80270;SDS011;69573;45.560;10.200;2023-05-02T03:50:58;0.98;;;0.98;;
80270;SDS011;69573;45.560;10.200;2023-05-02T03:53:24;1.05;;;0.95;;
80270;SDS011;69573;45.560;10.200;2023-05-02T03:55:51;1.60;;;1.00;;
80270;SDS011;69573;45.560;10.200;2023-05-02T03:58:18;0.80;;;0.80;;
80270;SDS011;69573;45.560;10.200;2023-05-02T04:00:44;1.15;;;1.00;;
80270;SDS011;69573;45.560;10.200;2023-05-02T04:03:10;1.20;;;1.10;;
80270;SDS011;69573;45.560;10.200;2023-05-02T04:05:37;0.73;;;0.73;;
80270;SDS011;69573;45.560;10.200;2023-05-02T04:08:03;1.13;;;1.10;;
80270;SDS011;69573;45.560;10.200;2023-05-02T04:10:29;1.13;;;1.02;;
80270;SDS011;69573;45.560;10.200;2023-05-02T04:12:55;1.17;;;1.08;;
80270;SDS011;69573;45.560;10.200;2023-05-02T04:15:22;1.45;;;1.02;;
80270;SDS011;69573;45.560;10.200;2023-05-02T04:17:49;1.30;;;1.30;;
80270;SDS011;69573;45.560;10.200;2023-05-02T04:20:15;1.00;;;1.00;;
80270;SDS011;69573;45.560;10.200;2023-05-02T04:22:42;1.02;;;1.02;;
80270;SDS011;69573;45.560;10.200;2023-05-02T04:25:08;1.35;;;0.85;;
80270;SDS011;69573;45.560;10.200;2023-05-02T04:27:34;1.15;;;1.00;;
80270;SDS011;69573;45.560;10.200;2023-05-02T04:30:02;0.85;;;0.80;;
80270;SDS011;69573;45.560;10.200;2023-05-02T04:32:29;1.48;;;1.38;;
80270;SDS011;69573;45.560;10.200;2023-05-02T04:34:58;1.13;;;1.02;;
80270;SDS011;69573;45.560;10.200;2023-05-02T04:37:24;1.13;;;1.10;;
80270;SDS011;69573;45.560;10.200;2023-05-02T04:39:50;1.30;;;1.13;;
80270;SDS011;69573;45.560;10.200;2023-05-02T04:42:17;1.63;;;1.48;;
80270;SDS011;69573;45.560;10.200;2023-05-02T04:44:43;2.08;;;1.08;;
80270;SDS011;69573;45.560;10.200;2023-05-02T04:47:10;1.23;;;1.13;;
80270;SDS011;69573;45.560;10.200;2023-05-02T04:49:36;0.93;;;0.93;;
80270;SDS011;69573;45.560;10.200;2023-05-02T04:52:06;1.10;;;1.10;;
80270;SDS011;69573;45.560;10.200;2023-05-02T04:54:33;1.05;;;1.05;;
80270;SDS011;69573;45.560;10.200;2023-05-02T04:56:59;1.00;;;1.00;;
80270;SDS011;69573;45.560;10.200;2023-05-02T04:59:28;1.20;;;1.10;;
80270;SDS011;69573;45.560;10.200;2023-05-02T05:01:54;1.70;;;1.30;;
80270;SDS011;69573;45.560;10.200;2023-05-02T05:04:21;1.10;;;1.02;;
80270;SDS011;69573;45.560;10.200;2023-05-02T05:06:47;0.93;;;0.93;;
80270;SDS011;69573;45.560;10.200;2023-05-02T05:09:13;1.10;;;1.00;;
80270;SDS011;69573;45.560;10.200;2023-05-02T05:11:40;1.15;;;1.10;;
80270;SDS011;69573;45.560;10.200;2023-05-02T05:14:10;1.58;;;1.13;;
80270;SDS011;69573;45.560;10.200;2023-05-02T05:16:36;1.00;;;1.00;;
80270;SDS011;69573;45.560;10.200;2023-05-02T05:19:02;1.08;;;0.90;;
80270;SDS011;69573;45.560;10.200;2023-05-02T05:21:29;1.10;;;1.00;;
80270;SDS011;69573;45.560;10.200;2023-05-02T05:23:55;1.25;;;1.10;;
80270;SDS011;69573;45.560;10.200;2023-05-02T05:26:22;1.25;;;0.90;;
80270;SDS011;69573;45.560;10.200;2023-05-02T05:28:49;1.65;;;1.10;;
80270;SDS011;69573;45.560;10.200;2023-05-02T05:31:16;1.00;;;1.00;;
80270;SDS011;69573;45.560;10.200;2023-05-02T05:33:42;0.80;;;0.80;;
80270;SDS011;69573;45.560;10.200;2023-05-02T05:36:09;1.38;;;1.17;;
80270;SDS011;69573;45.560;10.200;2023-05-02T05:38:36;1.40;;;1.30;;
80270;SDS011;69573;45.560;10.200;2023-05-02T05:41:02;1.38;;;1.27;;
80270;SDS011;69573;45.560;10.200;2023-05-02T05:43:29;0.90;;;0.90;;
80270;SDS011;69573;45.560;10.200;2023-05-02T05:45:55;1.13;;;1.02;;
80270;SDS011;69573;45.560;10.200;2023-05-02T05:48:22;0.98;;;0.95;;
80270;SDS011;69573;45.560;10.200;2023-05-02T05:50:51;0.80;;;0.80;;
80270;SDS011;69573;45.560;10.200;2023-05-02T05:53:17;1.27;;;1.17;;
80270;SDS011;69573;45.560;10.200;2023-05-02T05:55:43;1.10;;;1.00;;
80270;SDS011;69573;45.560;10.200;2023-05-02T05:58:10;1.20;;;1.10;;
80270;SDS011;69573;45.560;10.200;2023-05-02T06:00:37;0.85;;;0.85;;
80270;SDS011;69573;45.560;10.200;2023-05-02T06:03:03;1.20;;;1.17;;
80270;SDS011;69573;45.560;10.200;2023-05-02T06:05:30;1.25;;;1.15;;
80270;SDS011;69573;45.560;10.200;2023-05-02T06:07:57;1.17;;;1.17;;
80270;SDS011;69573;45.560;10.200;2023-05-02T06:10:23;1.92;;;1.00;;
80270;SDS011;69573;45.560;10.200;2023-05-02T06:12:49;1.10;;;1.10;;
80270;SDS011;69573;45.560;10.200;2023-05-02T06:15:16;1.52;;;1.15;;
80270;SDS011;69573;45.560;10.200;2023-05-02T06:17:42;1.95;;;1.00;;
80270;SDS011;69573;45.560;10.200;2023-05-02T06:20:08;0.88;;;0.88;;
80270;SDS011;69573;45.560;10.200;2023-05-02T06:22:35;1.08;;;1.00;;
80270;SDS011;69573;45.560;10.200;2023-05-02T06:25:01;1.10;;;1.00;;
80270;SDS011;69573;45.560;10.200;2023-05-02T06:27:29;1.00;;;1.00;;
80270;SDS011;69573;45.560;10.200;2023-05-02T06:29:55;1.00;;;1.00;;
80270;SDS011;69573;45.560;10.200;2023-05-02T06:32:21;2.78;;;0.95;;
80270;SDS011;69573;45.560;10.200;2023-05-02T06:34:48;1.30;;;1.20;;
80270;SDS011;69573;45.560;10.200;2023-05-02T06:37:14;1.38;;;0.90;;
80270;SDS011;69573;45.560;10.200;2023-05-02T06:39:40;0.75;;;0.75;;
80270;SDS011;69573;45.560;10.200;2023-05-02T06:42:06;0.80;;;0.80;;
80270;SDS011;69573;45.560;10.200;2023-05-02T06:44:33;0.82;;;0.82;;
80270;SDS011;69573;45.560;10.200;2023-05-02T06:46:59;1.10;;;1.00;;
80270;SDS011;69573;45.560;10.200;2023-05-02T06:49:29;1.58;;;1.00;;
80270;SDS011;69573;45.560;10.200;2023-05-02T06:51:55;1.55;;;0.82;;
80270;SDS011;69573;45.560;10.200;2023-05-02T06:54:22;2.17;;;0.93;;
80270;SDS011;69573;45.560;10.200;2023-05-02T06:56:48;1.00;;;0.80;;
80270;SDS011;69573;45.560;10.200;2023-05-02T06:59:14;1.45;;;1.33;;
80270;SDS011;69573;45.560;10.200;2023-05-02T07:01:43;1.80;;;1.00;;
80270;SDS011;69573;45.560;10.200;2023-05-02T07:04:10;1.60;;;1.00;;
80270;SDS011;69573;45.560;10.200;2023-05-02T07:06:36;2.25;;;0.90;;
80270;SDS011;69573;45.560;10.200;2023-05-02T07:09:02;0.88;;;0.88;;
80270;SDS011;69573;45.560;10.200;2023-05-02T07:11:32;2.05;;;1.75;;
80270;SDS011;69573;45.560;10.200;2023-05-02T07:13:59;1.20;;;1.10;;
80270;SDS011;69573;45.560;10.200;2023-05-02T07:16:25;1.20;;;1.10;;
80270;SDS011;69573;45.560;10.200;2023-05-02T07:18:51;1.02;;;1.00;;
80270;SDS011;69573;45.560;10.200;2023-05-02T07:21:17;1.05;;;0.90;;
80270;SDS011;69573;45.560;10.200;2023-05-02T07:23:44;1.08;;;0.85;;
80270;SDS011;69573;45.560;10.200;2023-05-02T07:26:10;1.20;;;1.08;;
80270;SDS011;69573;45.560;10.200;2023-05-02T07:28:36;1.08;;;1.08;;
80270;SDS011;69573;45.560;10.200;2023-05-02T07:31:03;1.30;;;1.17;;
80270;SDS011;69573;45.560;10.200;2023-05-02T07:33:29;1.10;;;0.90;;
80270;SDS011;69573;45.560;10.200;2023-05-02T07:35:56;3.05;;;1.08;;
80270;SDS011;69573;45.560;10.200;2023-05-02T07:38:22;1.70;;;1.40;;
80270;SDS011;69573;45.560;10.200;2023-05-02T07:40:49;1.42;;;1.17;;
80270;SDS011;69573;45.560;10.200;2023-05-02T07:43:15;1.55;;;1.30;;
80270;SDS011;69573;45.560;10.200;2023-05-02T07:45:42;2.42;;;1.27;;
80270;SDS011;69573;45.560;10.200;2023-05-02T07:48:09;1.40;;;1.30;;
80270;SDS011;69573;45.560;10.200;2023-05-02T07:50:35;3.25;;;1.55;;
80270;SDS011;69573;45.560;10.200;2023-05-02T07:53:01;2.25;;;2.05;;
80270;SDS011;69573;45.560;10.200;2023-05-02T07:55:27;1.80;;;1.70;;
80270;SDS011;69573;45.560;10.200;2023-05-02T07:57:55;1.83;;;1.50;;
80270;SDS011;69573;45.560;10.200;2023-05-02T08:00:22;1.42;;;1.15;;
80270;SDS011;69573;45.560;10.200;2023-05-02T08:02:48;2.42;;;1.83;;
80270;SDS011;69573;45.560;10.200;2023-05-02T08:05:14;1.92;;;1.35;;
80270;SDS011;69573;45.560;10.200;2023-05-02T08:07:41;1.45;;;1.35;;
80270;SDS011;69573;45.560;10.200;2023-05-02T08:10:08;1.15;;;1.10;;
80270;SDS011;69573;45.560;10.200;2023-05-02T08:12:41;1.23;;;1.23;;
80270;SDS011;69573;45.560;10.200;2023-05-02T08:15:10;1.02;;;0.93;;
80270;SDS011;69573;45.560;10.200;2023-05-02T08:17:38;2.25;;;1.02;;
80270;SDS011;69573;45.560;10.200;2023-05-02T08:20:04;1.40;;;1.10;;
80270;SDS011;69573;45.560;10.200;2023-05-02T08:22:30;1.05;;;0.80;;
80270;SDS011;69573;45.560;10.200;2023-05-02T08:24:57;1.05;;;0.88;;
80270;SDS011;69573;45.560;10.200;2023-05-02T08:27:24;1.55;;;0.80;;
80270;SDS011;69573;45.560;10.200;2023-05-02T08:29:51;3.08;;;0.90;;
80270;SDS011;69573;45.560;10.200;2023-05-02T08:32:17;1.83;;;1.00;;
80270;SDS011;69573;45.560;10.200;2023-05-02T08:34:43;1.33;;;1.08;;
80270;SDS011;69573;45.560;10.200;2023-05-02T08:37:09;0.80;;;0.50;;
80270;SDS011;69573;45.560;10.200;2023-05-02T08:39:36;0.75;;;0.75;;
80270;SDS011;69573;45.560;10.200;2023-05-02T08:42:06;0.85;;;0.82;;
80270;SDS011;69573;45.560;10.200;2023-05-02T08:46:58;0.60;;;0.60;;
80270;SDS011;69573;45.560;10.200;2023-05-02T08:49:25;1.67;;;0.60;;
80270;SDS011;69573;45.560;10.200;2023-05-02T08:51:51;0.60;;;0.60;;
80270;SDS011;69573;45.560;10.200;2023-05-02T08:54:20;0.70;;;0.70;;
80270;SDS011;69573;45.560;10.200;2023-05-02T08:56:47;0.82;;;0.57;;
80270;SDS011;69573;45.560;10.200;2023-05-02T08:59:13;0.60;;;0.60;;
80270;SDS011;69573;45.560;10.200;2023-05-02T09:01:40;2.30;;;0.80;;
80270;SDS011;69573;45.560;10.200;2023-05-02T09:04:06;1.15;;;0.80;;
80270;SDS011;69573;45.560;10.200;2023-05-02T09:06:33;1.20;;;1.00;;
80270;SDS011;69573;45.560;10.200;2023-05-02T09:08:59;1.10;;;1.00;;
80270;SDS011;69573;45.560;10.200;2023-05-02T09:11:26;1.30;;;1.20;;
80270;SDS011;69573;45.560;10.200;2023-05-02T09:13:52;2.35;;;1.50;;
80270;SDS011;69573;45.560;10.200;2023-05-02T09:16:23;3.08;;;2.00;;
80270;SDS011;69573;45.560;10.200;2023-05-02T09:18:56;1.73;;;1.63;;
80270;SDS011;69573;45.560;10.200;2023-05-02T09:21:34;1.80;;;1.70;;
80270;SDS011;69573;45.560;10.200;2023-05-02T09:24:01;1.98;;;1.60;;
80270;SDS011;69573;45.560;10.200;2023-05-02T09:26:28;2.08;;;1.80;;
80270;SDS011;69573;45.560;10.200;2023-05-02T09:28:57;1.73;;;1.63;;
80270;SDS011;69573;45.560;10.200;2023-05-02T09:31:24;2.05;;;1.85;;
80270;SDS011;69573;45.560;10.200;2023-05-02T09:33:51;2.30;;;1.90;;
80270;SDS011;69573;45.560;10.200;2023-05-02T09:36:18;4.35;;;2.25;;
80270;SDS011;69573;45.560;10.200;2023-05-02T09:38:46;2.63;;;2.42;;
80270;SDS011;69573;45.560;10.200;2023-05-02T09:41:13;4.40;;;2.15;;
80270;SDS011;69573;45.560;10.200;2023-05-02T09:43:39;3.00;;;2.47;;
80270;SDS011;69573;45.560;10.200;2023-05-02T09:46:06;2.63;;;2.42;;
80270;SDS011;69573;45.560;10.200;2023-05-02T09:48:41;2.97;;;2.38;;
80270;SDS011;69573;45.560;10.200;2023-05-02T09:51:17;2.63;;;2.42;;
80270;SDS011;69573;45.560;10.200;2023-05-02T09:53:43;3.50;;;2.30;;
80270;SDS011;69573;45.560;10.200;2023-05-02T09:56:10;2.42;;;2.22;;
80270;SDS011;69573;45.560;10.200;2023-05-02T09:58:36;2.88;;;2.42;;
80270;SDS011;69573;45.560;10.200;2023-05-02T10:01:03;3.22;;;2.33;;
80270;SDS011;69573;45.560;10.200;2023-05-02T10:03:29;2.53;;;1.75;;
80270;SDS011;69573;45.560;10.200;2023-05-02T10:05:59;1.92;;;1.83;;
80270;SDS011;69573;45.560;10.200;2023-05-02T10:08:26;2.53;;;2.05;;
80270;SDS011;69573;45.560;10.200;2023-05-02T10:10:56;3.70;;;2.38;;
80270;SDS011;69573;45.560;10.200;2023-05-02T10:13:23;2.33;;;2.00;;
80270;SDS011;69573;45.560;10.200;2023-05-02T10:16:01;2.30;;;2.10;;
80270;SDS011;69573;45.560;10.200;2023-05-02T10:18:28;2.55;;;2.03;;
80270;SDS011;69573;45.560;10.200;2023-05-02T10:21:04;2.03;;;1.92;;
80270;SDS011;69573;45.560;10.200;2023-05-02T10:23:37;2.92;;;1.80;;
80270;SDS011;69573;45.560;10.200;2023-05-02T10:26:06;2.30;;;2.10;;
80270;SDS011;69573;45.560;10.200;2023-05-02T10:28:32;2.15;;;1.95;;
80270;SDS011;69573;45.560;10.200;2023-05-02T10:30:59;1.88;;;1.77;;
80270;SDS011;69573;45.560;10.200;2023-05-02T10:33:26;1.77;;;1.67;;
80270;SDS011;69573;45.560;10.200;2023-05-02T10:35:53;1.85;;;1.75;;
80270;SDS011;69573;45.560;10.200;2023-05-02T10:38:20;2.58;;;1.70;;
80270;SDS011;69573;45.560;10.200;2023-05-02T10:41:00;2.35;;;1.80;;
80270;SDS011;69573;45.560;10.200;2023-05-02T10:43:46;2.53;;;1.80;;
80270;SDS011;69573;45.560;10.200;2023-05-02T10:46:31;2.22;;;2.00;;
80270;SDS011;69573;45.560;10.200;2023-05-02T10:51:27;1.60;;;1.50;;
80270;SDS011;69573;45.560;10.200;2023-05-02T10:53:54;3.05;;;1.67;;
80270;SDS011;69573;45.560;10.200;2023-05-02T10:56:21;1.70;;;1.60;;
80270;SDS011;69573;45.560;10.200;2023-05-02T10:58:52;1.88;;;1.33;;
80270;SDS011;69573;45.560;10.200;2023-05-02T11:03:55;2.22;;;1.90;;
80270;SDS011;69573;45.560;10.200;2023-05-02T11:06:22;1.85;;;1.70;;
80270;SDS011;69573;45.560;10.200;2023-05-02T11:08:48;2.03;;;1.75;;
80270;SDS011;69573;45.560;10.200;2023-05-02T11:14:00;1.83;;;1.70;;
80270;SDS011;69573;45.560;10.200;2023-05-02T11:16:33;2.05;;;1.85;;
80270;SDS011;69573;45.560;10.200;2023-05-02T11:19:13;1.92;;;1.83;;
80270;SDS011;69573;45.560;10.200;2023-05-02T11:21:39;2.72;;;2.25;;
80270;SDS011;69573;45.560;10.200;2023-05-02T11:26:50;2.67;;;2.15;;
80270;SDS011;69573;45.560;10.200;2023-05-02T11:30:04;2.15;;;1.95;;
80270;SDS011;69573;45.560;10.200;2023-05-02T11:32:05;2.13;;;1.88;;
80270;SDS011;69573;45.560;10.200;2023-05-02T11:34:38;2.38;;;2.17;;
80270;SDS011;69573;45.560;10.200;2023-05-02T11:37:12;2.45;;;2.00;;
80270;SDS011;69573;45.560;10.200;2023-05-02T11:39:39;3.03;;;2.22;;
80270;SDS011;69573;45.560;10.200;2023-05-02T11:42:05;3.70;;;2.00;;
80270;SDS011;69573;45.560;10.200;2023-05-02T11:44:31;2.00;;;1.83;;
80270;SDS011;69573;45.560;10.200;2023-05-02T11:46:57;2.33;;;2.13;;
80270;SDS011;69573;45.560;10.200;2023-05-02T11:49:24;2.42;;;1.90;;
80270;SDS011;69573;45.560;10.200;2023-05-02T11:51:51;2.85;;;2.22;;
80270;SDS011;69573;45.560;10.200;2023-05-02T11:54:18;2.20;;;2.05;;
80270;SDS011;69573;45.560;10.200;2023-05-02T11:56:46;3.70;;;2.40;;
80270;SDS011;69573;45.560;10.200;2023-05-02T11:59:12;2.00;;;1.90;;
80270;SDS011;69573;45.560;10.200;2023-05-02T12:01:50;2.78;;;1.90;;
80270;SDS011;69573;45.560;10.200;2023-05-02T12:04:17;2.95;;;1.95;;
80270;SDS011;69573;45.560;10.200;2023-05-02T12:06:54;2.78;;;2.15;;
80270;SDS011;69573;45.560;10.200;2023-05-02T12:09:20;2.90;;;2.17;;
80270;SDS011;69573;45.560;10.200;2023-05-02T12:11:52;2.22;;;2.03;;
80270;SDS011;69573;45.560;10.200;2023-05-02T12:14:26;2.90;;;2.22;;
80270;SDS011;69573;45.560;10.200;2023-05-02T12:16:53;1.90;;;1.80;;
80270;SDS011;69573;45.560;10.200;2023-05-02T12:19:19;2.05;;;1.95;;
80270;SDS011;69573;45.560;10.200;2023-05-02T12:21:46;1.83;;;1.73;;
80270;SDS011;69573;45.560;10.200;2023-05-02T12:24:13;2.35;;;2.17;;
80270;SDS011;69573;45.560;10.200;2023-05-02T12:26:39;3.85;;;2.08;;
80270;SDS011;69573;45.560;10.200;2023-05-02T12:29:08;2.22;;;2.03;;
80270;SDS011;69573;45.560;10.200;2023-05-02T12:31:35;2.03;;;1.85;;
80270;SDS011;69573;45.560;10.200;2023-05-02T12:34:01;2.95;;;2.10;;
80270;SDS011;69573;45.560;10.200;2023-05-02T12:36:27;2.55;;;2.30;;
80270;SDS011;69573;45.560;10.200;2023-05-02T12:38:54;3.90;;;2.50;;
80270;SDS011;69573;45.560;10.200;2023-05-02T12:41:36;2.95;;;2.72;;
80270;SDS011;69573;45.560;10.200;2023-05-02T12:44:03;7.32;;;3.38;;
80270;SDS011;69573;45.560;10.200;2023-05-02T12:46:32;3.47;;;3.00;;
80270;SDS011;69573;45.560;10.200;2023-05-02T12:49:05;3.15;;;2.85;;
80270;SDS011;69573;45.560;10.200;2023-05-02T12:51:36;3.40;;;3.10;;
80270;SDS011;69573;45.560;10.200;2023-05-02T12:54:03;5.05;;;3.80;;
80270;SDS011;69573;45.560;10.200;2023-05-02T12:56:37;4.32;;;3.92;;
80270;SDS011;69573;45.560;10.200;2023-05-02T12:59:03;4.13;;;3.28;;
80270;SDS011;69573;45.560;10.200;2023-05-02T13:01:30;4.20;;;3.83;;
80270;SDS011;69573;45.560;10.200;2023-05-02T13:03:57;4.28;;;3.88;;
80270;SDS011;69573;45.560;10.200;2023-05-02T13:06:24;4.40;;;4.00;;
80270;SDS011;69573;45.560;10.200;2023-05-02T13:08:50;4.68;;;4.28;;
80270;SDS011;69573;45.560;10.200;2023-05-02T13:11:16;4.85;;;4.40;;
80270;SDS011;69573;45.560;10.200;2023-05-02T13:13:43;4.30;;;3.75;;
80270;SDS011;69573;45.560;10.200;2023-05-02T13:16:09;6.68;;;3.72;;
80270;SDS011;69573;45.560;10.200;2023-05-02T13:18:35;5.80;;;4.07;;
80270;SDS011;69573;45.560;10.200;2023-05-02T13:21:02;4.07;;;3.67;;
80270;SDS011;69573;45.560;10.200;2023-05-02T13:23:30;4.30;;;3.80;;
80270;SDS011;69573;45.560;10.200;2023-05-02T13:25:56;6.28;;;4.22;;
80270;SDS011;69573;45.560;10.200;2023-05-02T13:28:23;4.10;;;3.70;;
80270;SDS011;69573;45.560;10.200;2023-05-02T13:30:49;3.97;;;3.67;;
80270;SDS011;69573;45.560;10.200;2023-05-02T13:33:16;4.10;;;3.70;;
80270;SDS011;69573;45.560;10.200;2023-05-02T13:35:42;3.50;;;3.20;;
80270;SDS011;69573;45.560;10.200;2023-05-02T13:38:09;4.25;;;3.38;;
80270;SDS011;69573;45.560;10.200;2023-05-02T13:40:36;3.95;;;3.60;;
80270;SDS011;69573;45.560;10.200;2023-05-02T13:43:02;4.15;;;3.13;;
80270;SDS011;69573;45.560;10.200;2023-05-02T13:45:29;4.82;;;3.88;;
80270;SDS011;69573;45.560;10.200;2023-05-02T13:47:55;3.63;;;3.30;;
80270;SDS011;69573;45.560;10.200;2023-05-02T13:50:21;4.03;;;3.47;;
80270;SDS011;69573;45.560;10.200;2023-05-02T13:52:48;3.47;;;3.17;;
80270;SDS011;69573;45.560;10.200;2023-05-02T13:55:14;2.92;;;2.70;;
80270;SDS011;69573;45.560;10.200;2023-05-02T13:57:41;2.58;;;2.38;;
80270;SDS011;69573;45.560;10.200;2023-05-02T14:00:08;2.45;;;2.25;;
80270;SDS011;69573;45.560;10.200;2023-05-02T14:02:37;2.60;;;2.40;;
80270;SDS011;69573;45.560;10.200;2023-05-02T14:05:03;1.77;;;1.67;;
80270;SDS011;69573;45.560;10.200;2023-05-02T14:07:29;2.03;;;1.92;;
80270;SDS011;69573;45.560;10.200;2023-05-02T14:09:58;1.50;;;1.40;;
80270;SDS011;69573;45.560;10.200;2023-05-02T14:12:25;2.17;;;1.63;;
80270;SDS011;69573;45.560;10.200;2023-05-02T14:14:51;1.50;;;1.40;;
80270;SDS011;69573;45.560;10.200;2023-05-02T14:17:17;5.03;;;2.20;;
80270;SDS011;69573;45.560;10.200;2023-05-02T14:19:50;2.17;;;1.90;;
80270;SDS011;69573;45.560;10.200;2023-05-02T14:22:16;2.58;;;1.85;;
80270;SDS011;69573;45.560;10.200;2023-05-02T14:24:42;2.17;;;1.67;;
80270;SDS011;69573;45.560;10.200;2023-05-02T14:27:08;1.80;;;1.70;;
80270;SDS011;69573;45.560;10.200;2023-05-02T14:29:37;1.50;;;1.40;;
80270;SDS011;69573;45.560;10.200;2023-05-02T14:32:04;3.22;;;2.33;;
80270;SDS011;69573;45.560;10.200;2023-05-02T14:34:30;1.92;;;1.75;;
80270;SDS011;69573;45.560;10.200;2023-05-02T14:36:57;2.38;;;1.92;;
80270;SDS011;69573;45.560;10.200;2023-05-02T14:39:23;2.25;;;2.10;;
80270;SDS011;69573;45.560;10.200;2023-05-02T14:41:51;2.35;;;1.83;;
80270;SDS011;69573;45.560;10.200;2023-05-02T14:44:17;2.10;;;1.92;;
80270;SDS011;69573;45.560;10.200;2023-05-02T14:46:43;4.43;;;2.75;;
80270;SDS011;69573;45.560;10.200;2023-05-02T14:49:10;5.95;;;2.70;;
80270;SDS011;69573;45.560;10.200;2023-05-02T14:51:37;4.03;;;3.25;;
80270;SDS011;69573;45.560;10.200;2023-05-02T14:54:07;3.70;;;3.15;;
80270;SDS011;69573;45.560;10.200;2023-05-02T14:56:33;3.80;;;2.92;;
80270;SDS011;69573;45.560;10.200;2023-05-02T14:58:59;3.50;;;2.85;;
80270;SDS011;69573;45.560;10.200;2023-05-02T15:01:25;3.50;;;3.05;;
80270;SDS011;69573;45.560;10.200;2023-05-02T15:03:52;3.42;;;3.13;;
80270;SDS011;69573;45.560;10.200;2023-05-02T15:06:19;3.20;;;2.85;;